createdAt,value
2022-08-03T00:05:04.298Z,6.93
2022-08-03T00:12:06.903Z,6.82
2022-08-03T00:19:08.870Z,5.75
2022-08-03T00:26:10.901Z,5.55
2022-08-03T00:33:13.021Z,5.95
2022-08-03T00:40:18.691Z,5.47
2022-08-03T00:47:20.813Z,5.75
2022-08-03T00:54:23.606Z,6.30
2022-08-03T01:01:25.842Z,5.68
2022-08-03T01:08:53.782Z,5.20
2022-08-03T01:16:20.453Z,5.72
2022-08-03T01:23:58.781Z,6.03
2022-08-03T01:31:06.771Z,6.10
2022-08-03T01:38:16.157Z,5.57
2022-08-03T01:45:19.219Z,6.15
2022-08-03T01:52:22.108Z,5.97
2022-08-03T01:59:25.030Z,5.90
2022-08-03T02:07:00.646Z,7.20
2022-08-03T02:13:52.017Z,6.28
2022-08-03T02:20:55.315Z,5.85
2022-08-03T02:28:00.479Z,8.60
2022-08-03T02:35:04.837Z,6.32
2022-08-03T02:42:09.648Z,6.53
2022-08-03T02:49:40.478Z,6.50
2022-08-03T02:56:38.881Z,7.00
2022-08-03T03:03:44.861Z,6.25
2022-08-03T03:10:47.542Z,6.45
2022-08-03T03:17:50.492Z,6.70
2022-08-03T03:24:53.716Z,6.50
2022-08-03T03:31:57.496Z,7.13
2022-08-03T03:38:59.551Z,7.20
2022-08-03T03:46:17.631Z,7.13
2022-08-03T03:53:19.700Z,7.30
2022-08-03T04:00:21.874Z,8.18
2022-08-03T04:07:43.220Z,7.28
2022-08-03T04:14:47.137Z,7.70
2022-08-03T04:21:52.438Z,7.40
2022-08-03T04:28:55.318Z,7.57
2022-08-03T04:36:02.704Z,8.20
2022-08-03T04:43:06.246Z,8.27
2022-08-03T04:50:12.523Z,8.07
2022-08-03T04:57:23.220Z,8.23
2022-08-03T05:04:25.422Z,7.85
2022-08-03T05:11:27.421Z,7.30
2022-08-03T05:18:29.369Z,6.95
2022-08-03T05:25:31.255Z,6.82
2022-08-03T05:32:33.483Z,6.72
2022-08-03T05:39:35.597Z,6.85
2022-08-03T05:46:37.632Z,6.90
2022-08-03T05:53:44.013Z,6.25
2022-08-03T06:00:45.963Z,5.95
2022-08-03T06:07:47.896Z,5.05
2022-08-03T06:14:49.819Z,5.38
2022-08-03T06:21:51.825Z,5.50
2022-08-03T06:28:55.343Z,5.15
2022-08-03T06:35:57.501Z,5.70
2022-08-03T06:43:01.373Z,5.65
2022-08-03T06:50:16.297Z,7.03
2022-08-03T06:57:19.388Z,7.65
2022-08-03T07:04:21.333Z,7.05
2022-08-03T07:11:23.304Z,6.63
2022-08-03T07:18:29.778Z,6.68
2022-08-03T07:25:32.006Z,6.30
2022-08-03T07:32:33.982Z,5.60
2022-08-03T07:39:36.014Z,5.68
2022-08-03T07:46:38.103Z,5.55
2022-08-03T07:53:45.997Z,4.55
2022-08-03T08:00:53.588Z,4.45
2022-08-03T08:07:56.977Z,4.30
2022-08-03T08:14:59.119Z,3.92
2022-08-03T08:22:02.607Z,3.95
2022-08-03T08:29:05.966Z,4.32
2022-08-03T08:36:12.032Z,3.60
2022-08-03T08:43:16.796Z,3.42
2022-08-03T08:50:27.629Z,4.32
2022-08-03T08:57:42.832Z,3.72
2022-08-03T09:04:45.893Z,4.00
2022-08-03T09:12:00.418Z,3.35
2022-08-03T09:19:14.209Z,2.90
2022-08-03T09:26:27.338Z,3.00
2022-08-03T09:33:36.015Z,3.10
2022-08-03T09:40:38.556Z,2.80
2022-08-03T09:47:44.915Z,2.90
2022-08-03T09:54:53.429Z,2.95
2022-08-03T10:02:00.055Z,3.10
2022-08-03T10:09:15.988Z,3.13
2022-08-03T10:16:25.268Z,3.10
2022-08-03T10:23:33.179Z,3.28
2022-08-03T10:30:37.291Z,2.92
2022-08-03T10:37:59.150Z,3.28
2022-08-03T10:45:13.239Z,3.25
2022-08-03T10:52:30.448Z,3.20
2022-08-03T10:59:49.161Z,3.47
2022-08-03T11:07:26.771Z,3.80
2022-08-03T11:14:28.753Z,3.08
2022-08-03T11:21:50.539Z,3.20
2022-08-03T11:28:52.511Z,3.60
2022-08-03T11:36:02.221Z,3.33
2022-08-03T11:43:05.814Z,3.38
2022-08-03T11:50:08.266Z,3.50
2022-08-03T11:57:10.503Z,3.40
2022-08-03T12:04:12.438Z,2.90
2022-08-03T12:11:15.955Z,3.35
2022-08-03T12:18:18.958Z,3.40
2022-08-03T12:25:38.870Z,3.20
2022-08-03T12:32:43.278Z,3.38
2022-08-03T12:40:02.565Z,3.08
2022-08-03T12:47:07.578Z,3.40
2022-08-03T12:54:10.786Z,3.20
2022-08-03T13:01:13.938Z,3.30
2022-08-03T13:08:21.028Z,3.67
2022-08-03T13:15:24.422Z,2.90
2022-08-03T13:22:33.126Z,3.30
2022-08-03T13:29:35.619Z,3.22
2022-08-03T13:37:06.497Z,2.75
2022-08-03T13:44:26.190Z,3.00
2022-08-03T13:51:23.005Z,3.38
2022-08-03T13:58:25.184Z,2.97
2022-08-03T14:05:27.150Z,3.17
2022-08-03T14:12:34.525Z,3.20
2022-08-03T14:19:52.760Z,2.75
2022-08-03T14:27:08.681Z,3.05
2022-08-03T14:34:15.571Z,3.00
2022-08-03T14:41:25.390Z,3.05
2022-08-03T14:50:27.803Z,2.83
2022-08-03T14:56:09.837Z,2.95
2022-08-03T15:03:16.685Z,2.75
2022-08-03T15:10:19.837Z,2.33
2022-08-03T15:17:30.113Z,3.10
2022-08-03T15:24:35.023Z,3.20
2022-08-03T15:31:36.972Z,2.92
2022-08-03T15:38:39.059Z,3.03
2022-08-03T15:45:43.449Z,2.90
2022-08-03T15:52:45.920Z,2.75
2022-08-03T15:59:48.014Z,2.92
2022-08-03T16:06:50.469Z,2.75
2022-08-03T16:14:13.403Z,3.15
2022-08-03T16:21:19.318Z,3.03
2022-08-03T16:28:23.641Z,3.25
2022-08-03T16:35:25.748Z,2.70
2022-08-03T16:42:27.816Z,2.65
2022-08-03T16:49:53.819Z,2.88
2022-08-03T16:56:52.003Z,2.67
2022-08-03T17:04:04.733Z,2.92
2022-08-03T17:11:09.302Z,3.30
2022-08-03T17:18:11.723Z,2.88
2022-08-03T17:25:22.204Z,2.75
2022-08-03T17:32:42.656Z,3.25
2022-08-03T17:39:58.809Z,3.00
2022-08-03T17:47:01.828Z,3.50
2022-08-03T17:54:18.286Z,3.15
2022-08-03T18:01:59.273Z,3.72
2022-08-03T18:10:06.793Z,3.53
2022-08-03T18:16:38.122Z,4.18
2022-08-03T18:23:42.069Z,5.97
2022-08-03T18:30:53.955Z,5.57
2022-08-03T18:37:58.901Z,4.72
2022-08-03T18:45:15.018Z,7.10
2022-08-03T18:52:52.938Z,7.25
2022-08-03T19:00:14.267Z,7.22
2022-08-03T19:07:25.380Z,7.75
2022-08-03T19:14:56.761Z,7.10
2022-08-03T19:22:00.378Z,6.80
2022-08-03T19:29:14.851Z,6.95
2022-08-03T19:36:18.629Z,6.30
2022-08-03T19:51:12.251Z,6.53
2022-08-03T19:58:34.931Z,6.90
2022-08-03T20:05:45.120Z,7.13
2022-08-03T20:12:57.508Z,7.13
2022-08-03T20:20:01.310Z,7.18
2022-08-03T20:27:08.336Z,7.93
2022-08-03T20:34:10.278Z,8.02
2022-08-03T20:41:12.323Z,7.05
2022-08-03T20:48:15.994Z,8.02
2022-08-03T20:55:20.287Z,7.57
2022-08-03T21:02:30.426Z,7.55
2022-08-03T21:09:42.237Z,7.25
2022-08-03T21:13:10.549Z,6.18
2022-08-03T21:16:46.641Z,8.10
2022-08-03T21:23:53.886Z,8.80
2022-08-03T21:30:57.627Z,8.13
2022-08-03T21:38:19.262Z,8.05
2022-08-03T21:45:21.281Z,7.88
2022-08-03T21:52:24.277Z,7.93
2022-08-03T21:59:27.006Z,8.95
2022-08-03T22:06:30.511Z,8.15
2022-08-03T22:13:44.261Z,7.68
2022-08-03T22:20:54.040Z,7.63
2022-08-03T22:27:56.996Z,8.45
2022-08-03T22:35:00.161Z,7.80
2022-08-03T22:42:05.627Z,7.57
2022-08-03T22:49:08.595Z,7.25
2022-08-03T22:56:10.679Z,7.85
2022-08-03T23:03:14.439Z,8.10
2022-08-03T23:10:16.649Z,7.35
2022-08-03T23:17:20.218Z,6.95
2022-08-03T23:24:29.798Z,7.68
2022-08-03T23:31:32.422Z,6.38
2022-08-03T23:38:36.363Z,7.00
2022-08-03T23:45:39.833Z,6.88
2022-08-03T23:53:08.942Z,6.43
